Time;durP1;ratioP1;P1;durP2;ratioP2;P2;SDS_P1;SDS_P2;PMS_P1;PMS_P2;Temp;Humidity;BMP_temperature;BMP_pressure;BME280_temperature;BME280_humidity;BME280_pressure;Samples;Min_cycle;Max_cycle;Signal;HPM_P1;HPM_P2
2023/11/18 00:01:08;;;;;;;1999.90;999.90;;;6.10;99.90;;;;;;5015190;28;21045;-76
2023/11/18 00:03:34;;;;;;;1999.90;999.90;;;6.00;99.90;;;;;;5015570;28;20404;-75
2023/11/18 00:06:00;;;;;;;1999.90;999.90;;;6.00;99.90;;;;;;5015766;28;20204;-76
2023/11/18 00:08:25;;;;;;;1999.90;999.90;;;6.10;99.90;;;;;;5016588;28;20483;-76
2023/11/18 00:10:51;;;;;;;1999.90;999.90;;;6.00;99.90;;;;;;5015553;28;20852;-76
2023/11/18 00:13:17;;;;;;;1999.90;999.90;;;6.00;99.90;;;;;;5016062;28;20165;-75
2023/11/18 00:15:45;;;;;;;1999.90;999.90;;;6.00;99.90;;;;;;5015099;28;20239;-76
2023/11/18 00:18:11;;;;;;;1999.90;999.90;;;6.00;99.90;;;;;;5015161;28;20172;-76
2023/11/18 00:20:37;;;;;;;1999.90;999.90;;;6.00;99.90;;;;;;5015308;28;20408;-76
2023/11/18 00:23:04;;;;;;;1999.90;999.90;;;5.90;99.90;;;;;;5015502;28;20400;-76
2023/11/18 00:25:30;;;;;;;1999.90;999.90;;;6.00;99.90;;;;;;5015368;28;20207;-76
2023/11/18 00:27:55;;;;;;;1999.90;999.90;;;6.10;99.90;;;;;;5015476;28;20408;-76
2023/11/18 00:30:21;;;;;;;1999.90;999.90;;;6.30;99.90;;;;;;5016351;28;20440;-76
2023/11/18 00:32:47;;;;;;;1999.90;999.90;;;6.10;99.90;;;;;;5015908;28;20169;-76
2023/11/18 00:35:14;;;;;;;1999.90;999.90;;;6.10;99.90;;;;;;5014570;28;20858;-76
2023/11/18 00:37:40;;;;;;;1999.90;999.90;;;6.10;99.90;;;;;;5014787;28;20415;-76
2023/11/18 00:40:08;;;;;;;1999.90;999.90;;;6.20;99.90;;;;;;5013592;28;20774;-75
2023/11/18 00:42:33;;;;;;;1999.90;999.90;;;6.20;99.90;;;;;;5013316;28;20507;-76
2023/11/18 00:44:59;;;;;;;1999.90;999.90;;;6.10;99.90;;;;;;5013049;28;20502;-76
2023/11/18 00:47:24;;;;;;;1999.90;999.90;;;6.10;99.90;;;;;;5013118;28;20173;-75
2023/11/18 00:49:51;;;;;;;1999.90;999.90;;;6.10;99.90;;;;;;5013421;28;20577;-76
2023/11/18 00:52:18;;;;;;;1999.90;999.90;;;6.10;99.90;;;;;;5013673;28;20197;-75
2023/11/18 00:54:44;;;;;;;1999.90;999.90;;;6.10;99.90;;;;;;5013195;28;20474;-75
2023/11/18 00:57:09;;;;;;;1999.90;999.90;;;6.10;99.90;;;;;;5013500;28;20808;-76
2023/11/18 00:59:35;;;;;;;1999.90;999.90;;;6.10;99.90;;;;;;5013488;28;20184;-76
2023/11/18 01:02:03;;;;;;;1999.90;999.90;;;6.20;99.90;;;;;;5014784;28;20648;-76
2023/11/18 01:04:28;;;;;;;1999.90;999.90;;;6.10;99.90;;;;;;5016805;28;20189;-76
2023/11/18 01:06:54;;;;;;;1999.90;999.90;;;6.20;99.90;;;;;;5015375;28;20420;-75
2023/11/18 01:09:20;;;;;;;1999.90;999.90;;;7.10;99.90;;;;;;5015314;28;20200;-75
2023/11/18 01:11:45;;;;;;;1999.90;999.90;;;6.10;99.90;;;;;;5015094;28;20176;-75
2023/11/18 01:14:11;;;;;;;1999.90;999.90;;;6.10;99.90;;;;;;5014926;28;20671;-75
2023/11/18 01:16:37;;;;;;;1999.90;999.90;;;6.10;99.90;;;;;;5015059;28;20543;-75
2023/11/18 01:19:03;;;;;;;1999.90;999.90;;;6.20;99.90;;;;;;5014972;28;20415;-75
2023/11/18 01:21:28;;;;;;;1999.90;999.90;;;6.10;99.90;;;;;;5015043;28;20412;-74
2023/11/18 01:23:55;;;;;;;1999.90;999.90;;;6.10;99.90;;;;;;5014716;28;20243;-75
2023/11/18 01:26:21;;;;;;;1999.90;999.90;;;6.10;99.90;;;;;;5014904;28;20161;-75
2023/11/18 01:28:47;;;;;;;1999.90;999.90;;;6.10;99.90;;;;;;5014822;28;20442;-75
2023/11/18 01:31:13;;;;;;;1999.90;999.90;;;6.60;99.90;;;;;;5014707;28;20486;-75
2023/11/18 01:33:44;;;;;;;1999.90;999.90;;;6.00;99.90;;;;;;5014686;28;20172;-75
2023/11/18 01:36:10;;;;;;;1999.90;999.90;;;5.90;84.00;;;;;;5014587;28;20387;-75
2023/11/18 01:38:40;;;;;;;1999.90;999.90;;;5.90;91.20;;;;;;5014648;28;20403;-75
2023/11/18 01:41:06;;;;;;;1999.90;999.90;;;5.90;82.50;;;;;;5014582;28;20188;-75
2023/11/18 01:43:32;;;;;;;1999.90;999.90;;;5.90;99.90;;;;;;5014500;28;20927;-75
2023/11/18 01:46:03;;;;;;;1999.90;999.90;;;5.70;80.30;;;;;;5014312;28;20404;-75
2023/11/18 01:48:30;;;;;;;1999.90;999.90;;;5.70;99.90;;;;;;5014522;28;20201;-75
2023/11/18 01:51:00;;;;;;;1999.90;999.90;;;5.70;99.90;;;;;;5014293;28;21032;-75
2023/11/18 01:53:27;;;;;;;1999.90;999.90;;;5.50;99.90;;;;;;5014313;28;20396;-75
2023/11/18 01:55:54;;;;;;;1999.90;999.90;;;5.60;99.90;;;;;;5014149;28;20400;-75
2023/11/18 01:58:22;;;;;;;1999.90;999.90;;;5.60;99.90;;;;;;5014339;28;20407;-75
2023/11/18 02:00:51;;;;;;;1999.90;999.90;;;5.60;99.90;;;;;;5014210;28;20404;-75
2023/11/18 02:03:17;;;;;;;1999.90;999.90;;;5.60;99.90;;;;;;5014195;28;20466;-75
2023/11/18 02:05:43;;;;;;;1999.90;999.90;;;5.60;99.90;;;;;;5015626;28;20431;-76
2023/11/18 02:08:10;;;;;;;1999.90;999.90;;;5.60;99.90;;;;;;5016591;28;20397;-76
2023/11/18 02:10:47;;;;;;;1999.90;999.90;;;5.60;99.90;;;;;;5016459;28;20973;-75
2023/11/18 02:13:27;;;;;;;1999.90;999.90;;;5.60;99.90;;;;;;5015759;28;20380;-75
2023/11/18 02:15:55;;;;;;;1999.90;999.90;;;5.60;99.90;;;;;;5016438;28;20396;-75
2023/11/18 02:18:21;;;;;;;1999.90;999.90;;;5.60;99.90;;;;;;5017131;28;20466;-75
2023/11/18 02:20:48;;;;;;;1999.90;999.90;;;5.60;99.90;;;;;;5018485;28;20919;-76
2023/11/18 02:23:15;;;;;;;1999.90;999.90;;;5.60;99.90;;;;;;5018110;28;20454;-76
2023/11/18 02:25:47;;;;;;;1999.90;999.90;;;5.60;99.90;;;;;;5017753;28;20517;-76
2023/11/18 02:28:13;;;;;;;1999.90;999.90;;;5.60;99.90;;;;;;5017665;28;20407;-76
2023/11/18 02:30:40;;;;;;;1999.90;999.90;;;5.60;99.90;;;;;;5017464;28;20455;-76
2023/11/18 02:33:19;;;;;;;1999.90;999.90;;;5.60;99.90;;;;;;5017689;28;20526;-76
2023/11/18 02:35:53;;;;;;;1999.90;999.90;;;5.60;99.90;;;;;;5017499;28;20411;-76
2023/11/18 02:38:24;;;;;;;1999.90;999.90;;;5.60;99.90;;;;;;5017005;28;20393;-76
2023/11/18 02:40:53;;;;;;;1999.90;999.90;;;5.60;99.90;;;;;;5017850;28;20411;-76
2023/11/18 02:43:19;;;;;;;1999.90;999.90;;;5.50;99.90;;;;;;5018953;28;20859;-75
2023/11/18 02:45:46;;;;;;;1999.90;999.90;;;5.50;99.90;;;;;;5018484;28;20826;-76
2023/11/18 02:48:13;;;;;;;1999.90;999.90;;;5.50;99.90;;;;;;5018759;28;20411;-76
2023/11/18 02:50:41;;;;;;;1999.90;999.90;;;5.40;99.90;;;;;;5016355;28;20548;-75
2023/11/18 02:53:09;;;;;;;1999.90;999.90;;;5.40;99.90;;;;;;5013265;28;20411;-75
2023/11/18 02:55:35;;;;;;;1999.90;999.90;;;5.40;99.90;;;;;;5012991;28;20808;-75
2023/11/18 02:58:02;;;;;;;1999.90;999.90;;;5.20;99.90;;;;;;5013185;28;20401;-75
2023/11/18 03:00:28;;;;;;;1999.90;999.90;;;5.40;99.90;;;;;;5013092;28;20404;-75
2023/11/18 03:02:54;;;;;;;1999.90;999.90;;;5.40;99.90;;;;;;5013076;28;20469;-75
2023/11/18 03:05:20;;;;;;;1999.90;999.90;;;5.50;99.90;;;;;;5012762;28;21007;-75
2023/11/18 03:07:50;;;;;;;1999.90;999.90;;;5.50;99.90;;;;;;5012925;28;20455;-75
2023/11/18 03:10:21;;;;;;;1999.90;999.90;;;5.50;99.90;;;;;;5012791;28;20455;-75
2023/11/18 03:12:48;;;;;;;1999.90;999.90;;;5.50;99.90;;;;;;5012889;28;20443;-75
2023/11/18 03:15:16;;;;;;;1999.90;999.90;;;5.50;99.90;;;;;;5012591;28;20423;-75
2023/11/18 03:17:43;;;;;;;1999.90;999.90;;;5.50;99.90;;;;;;5012810;28;20451;-75
2023/11/18 03:20:11;;;;;;;1999.90;999.90;;;5.40;99.90;;;;;;5012734;28;20404;-75
2023/11/18 03:22:37;;;;;;;1999.90;999.90;;;5.50;99.90;;;;;;5012738;28;20474;-75
2023/11/18 03:25:04;;;;;;;1999.90;999.90;;;5.50;99.90;;;;;;5011908;28;21131;-75
2023/11/18 03:27:30;;;;;;;1999.90;999.90;;;5.40;99.90;;;;;;5012709;28;20169;-75
2023/11/18 03:29:55;;;;;;;1999.90;999.90;;;5.60;99.90;;;;;;5012574;28;20448;-74
2023/11/18 03:32:21;;;;;;;1999.90;999.90;;;5.40;99.90;;;;;;5012525;28;20168;-75
2023/11/18 03:34:47;;;;;;;1999.90;999.90;;;5.40;99.90;;;;;;5012367;28;20193;-75
2023/11/18 03:37:12;;;;;;;1999.90;999.90;;;5.40;99.90;;;;;;5012635;28;20628;-75
2023/11/18 03:39:38;;;;;;;1999.90;999.90;;;5.30;99.90;;;;;;5012428;28;20173;-75
2023/11/18 03:42:04;;;;;;;1999.90;999.90;;;5.30;99.90;;;;;;5012468;28;20219;-75
2023/11/18 03:44:29;;;;;;;1999.90;999.90;;;5.30;99.90;;;;;;5012216;28;20200;-75
2023/11/18 03:46:55;;;;;;;1999.90;999.90;;;5.20;99.90;;;;;;5012407;28;20165;-75
2023/11/18 03:49:21;;;;;;;1999.90;999.90;;;5.20;99.90;;;;;;5012234;28;20408;-75
2023/11/18 03:51:47;;;;;;;1999.90;999.90;;;6.40;99.90;;;;;;5012304;28;20173;-75
2023/11/18 03:54:13;;;;;;;1999.90;999.90;;;5.10;99.90;;;;;;5012024;28;20185;-75
2023/11/18 03:56:39;;;;;;;1999.90;999.90;;;5.10;99.90;;;;;;5013607;28;20799;-75
2023/11/18 03:59:04;;;;;;;1999.90;999.90;;;5.20;99.90;;;;;;5015746;28;20412;-75
2023/11/18 04:01:31;;;;;;;1999.90;999.90;;;6.70;99.90;;;;;;5015342;28;20516;-76
2023/11/18 04:03:56;;;;;;;1999.90;999.90;;;5.10;99.90;;;;;;5016404;28;20244;-76
2023/11/18 04:06:24;;;;;;;1999.90;999.90;;;5.10;99.90;;;;;;5015797;28;20428;-75
2023/11/18 04:08:50;;;;;;;1999.90;999.90;;;5.10;99.90;;;;;;5015514;28;20640;-75
2023/11/18 04:11:16;;;;;;;1999.90;999.90;;;5.10;99.90;;;;;;5015331;28;20502;-76
2023/11/18 04:13:42;;;;;;;1999.90;999.90;;;5.20;99.90;;;;;;5015689;28;20447;-75
2023/11/18 04:16:15;;;;;;;1999.90;999.90;;;5.10;99.90;;;;;;5015168;28;20407;-75
2023/11/18 04:18:42;;;;;;;1999.90;999.90;;;5.20;99.90;;;;;;5015931;28;20493;-76
2023/11/18 04:21:08;;;;;;;1999.90;999.90;;;5.20;99.90;;;;;;5016298;28;20436;-75
2023/11/18 04:23:38;;;;;;;1999.90;999.90;;;5.10;99.90;;;;;;5016636;28;20411;-76
2023/11/18 04:26:07;;;;;;;1999.90;999.90;;;6.30;99.90;;;;;;5016979;28;20410;-76
2023/11/18 04:28:36;;;;;;;1999.90;999.90;;;5.30;99.90;;;;;;5017570;28;20412;-75
2023/11/18 04:31:04;;;;;;;1999.90;999.90;;;5.30;99.90;;;;;;5017211;28;20534;-76
2023/11/18 04:33:30;;;;;;;1999.90;999.90;;;5.30;99.90;;;;;;5016985;28;20411;-76
2023/11/18 04:35:59;;;;;;;1999.90;999.90;;;5.20;99.90;;;;;;5015155;28;20400;-76
2023/11/18 04:38:25;;;;;;;1999.90;999.90;;;5.20;99.90;;;;;;5019907;28;20440;-76
2023/11/18 04:40:55;;;;;;;1999.90;999.90;;;5.20;99.90;;;;;;5020163;28;20412;-76
2023/11/18 04:43:22;;;;;;;1999.90;999.90;;;5.20;99.90;;;;;;5019159;28;20435;-75
2023/11/18 04:45:47;;;;;;;1999.90;999.90;;;5.20;99.90;;;;;;5019722;28;20473;-75
2023/11/18 04:48:15;;;;;;;1999.90;999.90;;;5.30;99.90;;;;;;5008768;28;20431;-75
2023/11/18 04:50:42;;;;;;;1999.90;999.90;;;5.40;99.90;;;;;;5009735;28;20201;-75
2023/11/18 04:53:10;;;;;;;1999.90;999.90;;;5.40;99.90;;;;;;5009298;28;20442;-75
2023/11/18 04:55:36;;;;;;;1999.90;999.90;;;6.20;99.90;;;;;;5010104;28;20444;-75
2023/11/18 04:58:02;;;;;;;1999.90;999.90;;;;;;;;;;5009365;28;20415;-75
2023/11/18 05:00:28;;;;;;;1999.90;999.90;;;5.40;99.90;;;;;;5009760;28;20423;-75
2023/11/18 05:02:54;;;;;;;1999.90;999.90;;;7.70;99.90;;;;;;5009971;28;20424;-75
2023/11/18 05:05:22;;;;;;;1999.90;999.90;;;;;;;;;;5009632;28;20824;-75
2023/11/18 05:07:48;;;;;;;1999.90;999.90;;;;;;;;;;5026443;28;20424;-75
2023/11/18 05:10:14;;;;;;;1999.90;999.90;;;;;;;;;;5026962;28;20451;-75
2023/11/18 05:12:40;;;;;;;1999.90;999.90;;;;;;;;;;5009748;28;20450;-75
2023/11/18 05:15:10;;;;;;;1999.90;999.90;;;5.40;99.90;;;;;;5008857;28;20431;-75
2023/11/18 05:17:37;;;;;;;1999.90;999.90;;;5.40;99.90;;;;;;5009167;28;20423;-75
2023/11/18 05:20:10;;;;;;;1999.90;999.90;;;5.50;99.90;;;;;;5009147;28;20420;-75
2023/11/18 05:22:36;;;;;;;1999.90;999.90;;;5.50;99.90;;;;;;4993361;28;20487;-75
2023/11/18 05:25:06;;;;;;;1999.90;999.90;;;5.50;99.90;;;;;;5003817;28;20471;-75
2023/11/18 05:27:32;;;;;;;1999.90;999.90;;;5.50;99.90;;;;;;5025841;28;20470;-75
2023/11/18 05:29:59;;;;;;;1999.90;999.90;;;5.60;99.90;;;;;;5008195;28;20818;-75
2023/11/18 05:32:31;;;;;;;1999.90;999.90;;;7.80;99.90;;;;;;5008915;28;20420;-75
2023/11/18 05:35:16;;;;;;;1999.90;999.90;;;;;;;;;;5024587;28;20443;-75
2023/11/18 05:37:43;;;;;;;1999.90;999.90;;;5.70;99.90;;;;;;5008873;28;20409;-75
2023/11/18 05:40:15;;;;;;;1999.90;999.90;;;5.70;99.90;;;;;;5008116;28;20416;-75
2023/11/18 05:42:41;;;;;;;1999.90;999.90;;;5.70;99.90;;;;;;5008792;28;20412;-75
2023/11/18 05:45:17;;;;;;;1999.90;999.90;;;5.70;99.90;;;;;;4991537;28;20472;-75
2023/11/18 05:47:43;;;;;;;1999.90;999.90;;;5.70;99.90;;;;;;5007207;28;20415;-75
2023/11/18 05:50:09;;;;;;;1999.90;999.90;;;8.20;99.90;;;;;;5007583;28;20514;-75
2023/11/18 05:52:35;;;;;;;1999.90;999.90;;;;;;;;;;4991924;28;20173;-74
2023/11/18 05:55:02;;;;;;;1999.90;999.90;;;5.80;99.90;;;;;;5011015;28;20439;-75
2023/11/18 05:57:28;;;;;;;1999.90;999.90;;;;;;;;;;5011988;28;20438;-75
2023/11/18 05:59:54;;;;;;;1999.90;999.90;;;;;;;;;;5011470;28;20444;-75
2023/11/18 06:02:24;;;;;;;1999.90;999.90;;;5.90;99.90;;;;;;5012985;28;20408;-75
2023/11/18 06:04:52;;;;;;;1999.90;999.90;;;5.90;99.90;;;;;;5029211;28;20439;-75
2023/11/18 06:07:19;;;;;;;1999.90;999.90;;;5.90;99.90;;;;;;4995333;28;20444;-75
2023/11/18 06:09:46;;;;;;;1999.90;999.90;;;;;;;;;;5011071;28;20455;-75
2023/11/18 06:12:20;;;;;;;1999.90;999.90;;;5.90;99.90;;;;;;5011467;28;20488;-75
2023/11/18 06:14:48;;;;;;;1999.90;999.90;;;;;;;;;;4994711;28;20497;-75
2023/11/18 06:17:14;;;;;;;1999.90;999.90;;;;;;;;;;5025776;28;20415;-75
2023/11/18 06:19:55;;;;;;;1999.90;999.90;;;5.90;99.90;;;;;;4995128;28;20423;-75
2023/11/18 06:22:21;;;;;;;1999.90;999.90;;;6.00;99.90;;;;;;5011959;28;20937;-75
2023/11/18 06:24:47;;;;;;;1999.90;999.90;;;;;;;;;;4995738;28;20515;-75
2023/11/18 06:27:12;;;;;;;1999.90;999.90;;;6.00;99.90;;;;;;5012000;28;20180;-75
2023/11/18 06:29:40;;;;;;;1999.90;999.90;;;;;;;;;;5010459;28;20455;-75
2023/11/18 06:32:12;;;;;;;1999.90;999.90;;;6.00;99.90;;;;;;5028353;28;20169;-75
2023/11/18 06:34:38;;;;;;;1999.90;999.90;;;;;;;;;;5010894;28;20442;-75
2023/11/18 06:37:05;;;;;;;1999.90;999.90;;;6.00;99.90;;;;;;5011519;28;20492;-75
2023/11/18 06:39:41;;;;;;;1999.90;999.90;;;6.00;99.90;;;;;;5029394;28;20404;-74
2023/11/18 06:42:11;;;;;;;1999.90;999.90;;;6.00;99.90;;;;;;5010937;28;20423;-75
2023/11/18 06:44:41;;;;;;;1999.90;999.90;;;6.00;99.90;;;;;;5028390;28;20435;-75
2023/11/18 06:47:07;;;;;;;1999.90;999.90;;;;;;;;;;5011515;28;20420;-75
2023/11/18 06:49:36;;;;;;;1999.90;999.90;;;6.10;99.90;;;;;;5011564;28;20555;-75
2023/11/18 06:52:03;;;;;;;1999.90;999.90;;;6.00;99.90;;;;;;5011660;28;20483;-75
2023/11/18 06:54:30;;;;;;;1999.90;999.90;;;6.10;99.90;;;;;;4995244;28;20452;-75
2023/11/18 06:56:57;;;;;;;1999.90;999.90;;;6.10;99.90;;;;;;5010141;28;20483;-75
2023/11/18 06:59:23;;;;;;;1999.90;999.90;;;;;;;;;;5010213;28;20427;-75
2023/11/18 07:01:49;;;;;;;1999.90;999.90;;;6.10;99.90;;;;;;5010163;28;20427;-75
2023/11/18 07:04:15;;;;;;;1999.90;999.90;;;;;;;;;;5007657;28;20436;-75
2023/11/18 07:06:41;;;;;;;1999.90;999.90;;;6.10;99.90;;;;;;5006483;28;20193;-75
2023/11/18 07:09:17;;;;;;;1999.90;999.90;;;7.30;99.90;;;;;;5023136;28;20423;-74
2023/11/18 07:11:43;;;;;;;1999.90;999.90;;;6.50;99.90;;;;;;5017537;28;20173;-75
2023/11/18 07:14:10;;;;;;;1999.90;999.90;;;7.80;99.90;;;;;;5024510;28;20424;-75
2023/11/18 07:16:41;;;;;;;1999.90;999.90;;;6.20;99.90;;;;;;5023820;28;20453;-74
2023/11/18 07:19:07;;;;;;;1999.90;999.90;;;;;;;;;;5006731;28;20947;-75
2023/11/18 07:21:34;;;;;;;1999.90;999.90;;;6.20;99.90;;;;;;5024650;28;20403;-75
2023/11/18 07:24:00;;;;;;;1999.90;999.90;;;;;;;;;;5021164;28;20435;-75
2023/11/18 07:26:25;;;;;;;1999.90;999.90;;;6.20;99.90;;;;;;5016326;28;20487;-75
2023/11/18 07:28:51;;;;;;;1999.90;999.90;;;6.30;99.90;;;;;;5012808;28;20499;-75
2023/11/18 07:31:18;;;;;;;1999.90;999.90;;;6.30;99.90;;;;;;5012583;28;20232;-75
2023/11/18 07:33:48;;;;;;;1999.90;999.90;;;6.30;99.90;;;;;;5012449;28;20316;-74
2023/11/18 07:36:19;;;;;;;1999.90;999.90;;;6.80;99.90;;;;;;5012510;28;20403;-75
2023/11/18 07:38:49;;;;;;;1999.90;999.90;;;6.40;99.90;;;;;;5012597;28;20380;-75
2023/11/18 07:41:23;;;;;;;1999.90;999.90;;;6.40;99.90;;;;;;5012505;28;20906;-75
2023/11/18 07:43:54;;;;;;;1999.90;999.90;;;6.40;99.90;;;;;;5012224;28;20446;-74
2023/11/18 07:46:22;;;;;;;1999.90;999.90;;;6.40;99.90;;;;;;5012395;28;20415;-74
2023/11/18 07:48:49;;;;;;;1999.90;999.90;;;6.40;99.90;;;;;;5012343;28;20407;-74
2023/11/18 07:51:14;;;;;;;1999.90;999.90;;;6.50;99.90;;;;;;5012417;28;20533;-75
2023/11/18 07:53:40;;;;;;;1999.90;999.90;;;6.30;99.90;;;;;;5012277;28;20435;-75
2023/11/18 07:56:07;;;;;;;1999.90;999.90;;;6.50;99.90;;;;;;5012089;28;20184;-75
2023/11/18 07:58:37;;;;;;;1999.90;999.90;;;6.50;99.90;;;;;;5012339;28;20430;-75
2023/11/18 08:01:04;;;;;;;1999.90;999.90;;;6.60;99.90;;;;;;5012214;28;20454;-75
2023/11/18 08:03:31;;;;;;;1999.90;999.90;;;6.40;99.90;;;;;;5012098;28;20439;-75
2023/11/18 08:05:57;;;;;;;1999.90;999.90;;;6.60;99.90;;;;;;5013492;28;20435;-76
2023/11/18 08:08:23;;;;;;;1999.90;999.90;;;6.70;99.90;;;;;;5014668;28;20440;-76
2023/11/18 08:10:50;;;;;;;1999.90;999.90;;;6.70;99.90;;;;;;5015007;28;20820;-75
2023/11/18 08:13:16;;;;;;;1999.90;999.90;;;6.80;99.90;;;;;;5014462;28;20178;-76
2023/11/18 08:15:46;;;;;;;1999.90;999.90;;;6.80;99.90;;;;;;5013685;28;20424;-76
2023/11/18 08:18:12;;;;;;;1999.90;999.90;;;6.80;99.90;;;;;;5013756;28;20442;-75
2023/11/18 08:20:38;;;;;;;1999.90;999.90;;;6.70;99.90;;;;;;5014057;28;20828;-76
2023/11/18 08:23:07;;;;;;;1999.90;999.90;;;6.80;99.90;;;;;;5014148;28;20260;-75
2023/11/18 08:25:34;;;;;;;1999.90;999.90;;;6.90;99.90;;;;;;5014235;28;20462;-76
2023/11/18 08:28:00;;;;;;;1999.90;999.90;;;6.90;99.90;;;;;;5013635;28;20427;-76
2023/11/18 08:30:28;;;;;;;1999.90;999.90;;;7.00;99.90;;;;;;5017884;28;20538;-75
2023/11/18 08:32:54;;;;;;;1999.90;999.90;;;7.00;99.90;;;;;;4969632;28;20783;-75
2023/11/18 08:35:21;;;;;;;1999.90;999.90;;;7.10;99.90;;;;;;5014170;28;20447;-75
2023/11/18 08:37:47;;;;;;;1999.90;999.90;;;;;;;;;;5000519;28;20959;-75
2023/11/18 08:40:32;;;;;;;1999.90;999.90;;;7.10;99.90;;;;;;5000787;28;20487;-75
2023/11/18 08:42:58;;;;;;;1999.90;999.90;;;8.90;99.90;;;;;;5017802;28;20392;-75
2023/11/18 08:45:29;;;;;;;1999.90;999.90;;;7.10;99.90;;;;;;5000630;28;20812;-75
2023/11/18 08:48:06;;;;;;;1999.90;999.90;;;7.20;99.90;;;;;;4999900;28;20428;-75
2023/11/18 08:50:33;;;;;;;1999.90;999.90;;;;;;;;;;5000597;28;20451;-75
2023/11/18 08:52:59;;;;;;;1999.90;999.90;;;7.20;99.90;;;;;;4999652;28;20416;-75
2023/11/18 08:58:34;;;;;;;1999.90;999.90;;;9.30;99.90;;;;;;4964754;28;20944;-75
2023/11/18 09:01:12;;;;;;;1999.90;999.90;;;7.30;99.90;;;;;;4994148;28;20421;-75
2023/11/18 09:03:43;;;;;;;1999.90;999.90;;;7.30;99.90;;;;;;5000878;28;20426;-75
2023/11/18 09:06:25;;;;;;;1999.90;999.90;;;7.40;99.90;;;;;;4985160;28;20823;-75
2023/11/18 09:08:54;;;;;;;1999.90;999.90;;;8.90;99.90;;;;;;5009925;28;20432;-75
2023/11/18 09:11:22;;;;;;;1999.90;999.90;;;9.30;99.90;;;;;;4998713;28;20459;-75
2023/11/18 09:13:53;;;;;;;1999.90;999.90;;;8.50;99.90;;;;;;4998712;28;20424;-75
2023/11/18 09:16:22;;;;;;;1999.90;999.90;;;9.10;99.90;;;;;;5003633;28;20412;-75
2023/11/18 09:18:48;;;;;;;1999.90;999.90;;;7.60;99.90;;;;;;5007066;28;20413;-75
2023/11/18 09:21:14;;;;;;;1999.90;999.90;;;;;;;;;;5005857;28;20420;-75
2023/11/18 09:23:42;;;;;;;1999.90;999.90;;;7.60;99.90;;;;;;5007216;28;20412;-75
2023/11/18 09:33:06;;;;;;;1999.90;999.90;;;9.10;99.90;;;;;;4927341;29;20432;-75
2023/11/18 09:35:34;;;;;;;1999.90;999.90;;;;;;;;;;4947768;29;21835;-75
2023/11/18 09:38:05;;;;;;;1999.90;999.90;;;7.90;99.90;;;;;;4996285;28;20429;-75
2023/11/18 09:40:37;;;;;;;1999.90;999.90;;;7.90;99.90;;;;;;5005221;28;20413;-75
2023/11/18 09:43:09;;;;;;;1999.90;999.90;;;9.70;99.90;;;;;;4987025;28;20449;-75
2023/11/18 09:45:35;;;;;;;1999.90;999.90;;;8.10;99.90;;;;;;5003727;28;20446;-75
2023/11/18 09:48:06;;;;;;;1999.90;999.90;;;8.20;99.90;;;;;;5003558;28;20500;-75
2023/11/18 09:50:37;;;;;;;1999.90;999.90;;;8.00;99.90;;;;;;5004580;28;20477;-76
2023/11/18 09:53:11;;;;;;;1999.90;999.90;;;8.10;99.90;;;;;;5005115;28;20482;-75
2023/11/18 09:55:48;;;;;;;1999.90;999.90;;;8.20;99.90;;;;;;5002853;28;20429;-75
2023/11/18 09:58:23;;;;;;;1999.90;999.90;;;8.30;99.90;;;;;;4983478;28;20480;-76
2023/11/18 10:00:55;;;;;;;1999.90;999.90;;;8.20;99.90;;;;;;4997959;28;20762;-75
2023/11/18 10:03:22;;;;;;;1999.90;999.90;;;8.20;99.90;;;;;;5008354;28;20864;-74
2023/11/18 10:05:53;;;;;;;1999.90;999.90;;;8.20;99.90;;;;;;5001540;28;21202;-74
2023/11/18 10:08:23;;;;;;;1999.90;999.90;;;8.30;99.90;;;;;;4995153;28;20445;-74
2023/11/18 10:10:49;;;;;;;1999.90;999.90;;;8.30;99.90;;;;;;4995045;28;20941;-74
2023/11/18 10:13:24;;;;;;;1999.90;999.90;;;8.50;98.30;;;;;;4995506;28;20417;-74
2023/11/18 10:15:53;;;;;;;1999.90;999.90;;;8.40;96.70;;;;;;4994510;28;20548;-74
2023/11/18 10:18:23;;;;;;;1999.90;999.90;;;8.40;73.60;;;;;;4995554;28;20422;-73
2023/11/18 10:20:53;;;;;;;1999.90;999.90;;;8.40;70.30;;;;;;4995182;28;20433;-73
2023/11/18 10:23:21;;;;;;;1999.90;999.90;;;8.50;53.60;;;;;;4994600;28;20436;-74
2023/11/18 10:25:50;;;;;;;1999.90;999.90;;;8.50;37.70;;;;;;4995232;28;20464;-73
2023/11/18 10:28:22;;;;;;;1999.90;999.90;;;8.50;37.20;;;;;;4996463;28;20426;-73
2023/11/18 10:30:48;;;;;;;1999.90;999.90;;;8.50;39.00;;;;;;4977894;28;20457;-73
2023/11/18 10:33:21;;;;;;;1999.90;999.90;;;8.50;38.20;;;;;;4997420;28;20651;-73
2023/11/18 10:35:55;;;;;;;1999.90;999.90;;;8.50;35.80;;;;;;5008963;28;20209;-73
2023/11/18 10:38:25;;;;;;;1999.90;999.90;;;8.60;41.00;;;;;;5016846;28;20656;-73
2023/11/18 10:40:55;;;;;;;1999.90;999.90;;;8.60;38.90;;;;;;5016872;28;20416;-73
2023/11/18 10:43:30;;;;;;;1999.90;999.90;;;8.50;41.90;;;;;;5016725;28;20672;-73
2023/11/18 10:46:15;;;;;;;1999.90;999.90;;;8.50;43.10;;;;;;4999585;28;20504;-73
2023/11/18 10:48:42;;;;;;;1999.90;999.90;;;8.50;38.80;;;;;;5016805;28;20424;-73
2023/11/18 10:51:11;;;;;;;1999.90;999.90;;;8.40;54.50;;;;;;4999743;28;20452;-73
2023/11/18 10:53:37;;;;;;;1999.90;999.90;;;8.50;78.70;;;;;;5053872;22;20417;-71
2023/11/18 10:56:16;;;;;;;1999.90;999.90;;;8.50;45.20;;;;;;4987642;28;20431;-69
2023/11/18 10:58:41;;;;;;;1999.90;999.90;;;8.50;51.90;;;;;;4988641;28;20418;-72
2023/11/18 11:01:11;;;;;;;1999.90;999.90;;;8.50;75.60;;;;;;4989857;28;20423;-71
2023/11/18 11:03:55;;;;;;;1999.90;999.90;;;8.70;99.90;;;;;;4988897;28;20182;-71
2023/11/18 11:06:23;;;;;;;1999.90;999.90;;;8.60;92.90;;;;;;4989654;28;20783;-70
2023/11/18 11:08:52;;;;;;;1999.90;999.90;;;8.70;99.90;;;;;;4989127;28;20411;-71
2023/11/18 11:11:22;;;;;;;1999.90;999.90;;;9.00;81.00;;;;;;4988472;28;20476;-70
2023/11/18 11:13:57;;;;;;;1999.90;999.90;;;8.70;56.60;;;;;;4987964;28;20523;-71
2023/11/18 11:16:34;;;;;;;1999.90;999.90;;;8.70;64.80;;;;;;4988368;28;20422;-71
2023/11/18 11:19:08;;;;;;;1999.90;999.90;;;8.80;55.00;;;;;;4988535;28;20407;-72
2023/11/18 11:21:47;;;;;;;1999.90;999.90;;;8.90;45.00;;;;;;4988018;28;20452;-69
2023/11/18 11:24:23;;;;;;;1999.90;999.90;;;8.90;32.70;;;;;;4988144;28;20527;-71
2023/11/18 11:27:35;;;;;;;1999.90;999.90;;;8.90;22.90;;;;;;4988519;28;20422;-72
2023/11/18 11:30:31;;;;;;;1999.90;999.90;;;9.00;14.80;;;;;;4979038;28;20817;-71
2023/11/18 11:33:36;;;;;;;1999.90;999.90;;;8.80;1.00;;;;;;4984174;28;20923;-71
2023/11/18 11:36:05;;;;;;;1999.90;999.90;;;9.10;1.00;;;;;;4988965;28;20542;-70
2023/11/18 11:38:32;;;;;;;1999.90;999.90;;;9.20;1.00;;;;;;4988480;28;20418;-71
2023/11/18 11:41:01;;;;;;;1999.90;999.90;;;9.20;1.00;;;;;;4988146;28;20935;-72
2023/11/18 11:43:29;;;;;;;1999.90;999.90;;;9.20;1.00;;;;;;4988174;28;20434;-74
2023/11/18 11:45:58;;;;;;;1999.90;999.90;;;9.10;1.00;;;;;;4988521;28;20415;-71
2023/11/18 11:48:28;;;;;;;1999.90;999.90;;;9.10;1.00;;;;;;4988297;28;20472;-71
2023/11/18 11:50:56;;;;;;;1999.90;999.90;;;9.10;1.00;;;;;;4988035;28;20954;-71
2023/11/18 11:53:26;;;;;;;1999.90;999.90;;;9.40;1.00;;;;;;4987997;28;20449;-72
2023/11/18 11:56:04;;;;;;;1999.90;999.90;;;9.10;1.00;;;;;;4988712;28;20434;-71
2023/11/18 11:58:36;;;;;;;1999.90;999.90;;;9.10;1.00;;;;;;4988519;28;20411;-72
2023/11/18 12:01:34;;;;;;;1999.90;999.90;;;9.10;1.00;;;;;;4988456;28;20426;-71
2023/11/18 12:04:20;;;;;;;1999.90;999.90;;;9.10;1.00;;;;;;4982735;28;20972;-71
2023/11/18 12:06:47;;;;;;;1999.90;999.90;;;9.10;1.00;;;;;;4987847;28;20484;-71
2023/11/18 12:09:19;;;;;;;1999.90;999.90;;;9.10;1.00;;;;;;4987900;28;20871;-71
2023/11/18 12:11:48;;;;;;;1999.90;999.90;;;9.10;1.00;;;;;;4987854;28;20540;-71
2023/11/18 12:19:46;;;;;;;1999.90;999.90;;;9.10;1.00;;;;;;4987279;28;20454;-70
2023/11/18 12:22:26;;;;;;;1999.90;999.90;;;9.00;1.00;;;;;;4987574;28;20421;-71
2023/11/18 12:24:58;;;;;;;1999.90;999.90;;;9.10;1.00;;;;;;4987654;28;20867;-71
2023/11/18 12:27:51;;;;;;;1999.90;999.90;;;9.30;1.00;;;;;;4987620;28;20459;-70
2023/11/18 12:30:22;;;;;;;1999.90;999.90;;;9.10;1.00;;;;;;4988298;28;20465;-71
2023/11/18 12:33:05;;;;;;;1999.90;999.90;;;9.20;1.00;;;;;;4988492;28;20420;-72
2023/11/18 12:35:51;;;;;;;1999.90;999.90;;;9.20;1.00;;;;;;4988203;28;20441;-71
2023/11/18 12:39:13;;;;;;;1999.90;999.90;;;9.20;1.00;;;;;;4987681;28;20425;-71
2023/11/18 12:41:40;;;;;;;1999.90;999.90;;;9.20;1.00;;;;;;4959985;28;20438;-71